createdAt,value
2023-12-26T00:00:14.629Z,0.20
2023-12-26T00:05:21.114Z,0.20
2023-12-26T00:10:24.634Z,0.20
2023-12-26T00:15:28.130Z,0.37
2023-12-26T00:20:33.020Z,0.20
2023-12-26T00:25:36.401Z,0.23
2023-12-26T00:30:39.903Z,0.20
2023-12-26T00:35:44.768Z,0.20
2023-12-26T00:40:48.470Z,0.20
2023-12-26T00:45:51.871Z,0.37
2023-12-26T00:50:56.510Z,0.23
2023-12-26T00:55:59.899Z,0.40
2023-12-26T01:01:03.936Z,0.30
2023-12-26T01:06:09.056Z,0.30
2023-12-26T01:11:12.493Z,0.20
2023-12-26T01:16:15.814Z,0.30
2023-12-26T01:21:20.685Z,0.57
2023-12-26T01:26:24.462Z,0.30
2023-12-26T01:31:27.778Z,0.47
2023-12-26T01:36:34.428Z,0.40
2023-12-26T01:41:38.931Z,0.30
2023-12-26T01:46:42.685Z,0.27
2023-12-26T01:51:49.436Z,0.20
2023-12-26T01:56:52.874Z,1.30
2023-12-26T02:01:56.230Z,0.30
2023-12-26T02:07:01.249Z,0.30
2023-12-26T02:12:05.968Z,0.20
2023-12-26T02:17:14.047Z,0.30
2023-12-26T02:22:18.835Z,0.23
2023-12-26T02:27:30.209Z,0.20
2023-12-26T02:32:33.688Z,0.30
2023-12-26T02:37:38.063Z,0.20
2023-12-26T02:42:42.675Z,0.20
2023-12-26T02:47:46.036Z,0.20
2023-12-26T02:52:49.559Z,0.20
2023-12-26T02:57:54.260Z,0.27
2023-12-26T03:02:58.045Z,0.20
2023-12-26T03:08:01.587Z,0.20
2023-12-26T03:13:06.380Z,0.10
2023-12-26T03:18:09.924Z,0.17
2023-12-26T03:23:14.777Z,0.20
2023-12-26T03:28:19.481Z,0.20
2023-12-26T03:33:22.984Z,0.20
2023-12-26T03:38:26.532Z,0.20
2023-12-26T03:43:31.491Z,0.20
2023-12-26T03:48:35.206Z,0.20
2023-12-26T03:53:38.819Z,0.20
2023-12-26T03:58:43.571Z,0.20
2023-12-26T04:03:47.508Z,0.20
2023-12-26T04:08:50.966Z,0.20
2023-12-26T04:13:55.814Z,0.10
2023-12-26T04:18:59.232Z,0.20
2023-12-26T04:24:02.678Z,0.20
2023-12-26T04:29:07.632Z,0.20
2023-12-26T04:34:11.164Z,0.10
2023-12-26T04:39:14.812Z,0.20
2023-12-26T04:44:20.635Z,0.20
2023-12-26T04:49:24.041Z,0.10
2023-12-26T04:54:27.351Z,0.20
2023-12-26T04:59:32.390Z,0.10
2023-12-26T05:04:36.136Z,0.10
2023-12-26T05:09:40.081Z,0.10
2023-12-26T05:14:44.828Z,0.10
2023-12-26T05:19:48.254Z,0.20
2023-12-26T05:24:53.802Z,0.43
2023-12-26T05:30:00.155Z,0.30
2023-12-26T05:35:03.652Z,0.20
2023-12-26T05:40:08.534Z,0.20
2023-12-26T05:45:13.683Z,0.23
2023-12-26T05:50:17.848Z,0.27
2023-12-26T05:55:21.551Z,0.20
2023-12-26T06:00:26.314Z,0.20
2023-12-26T06:05:29.810Z,0.33
2023-12-26T06:10:34.034Z,0.27
2023-12-26T06:15:38.775Z,0.20
2023-12-26T06:20:42.372Z,0.30
2023-12-26T06:25:46.190Z,0.50
2023-12-26T06:30:51.542Z,0.30
2023-12-26T06:35:55.357Z,0.27
2023-12-26T06:40:58.792Z,0.40
2023-12-26T06:46:06.320Z,0.30
2023-12-26T06:51:11.438Z,0.30
2023-12-26T06:56:14.849Z,0.43
2023-12-26T07:01:19.747Z,0.20
2023-12-26T07:06:23.276Z,0.20
2023-12-26T07:11:26.650Z,0.30
2023-12-26T07:16:32.202Z,0.20
2023-12-26T07:21:35.669Z,0.30
2023-12-26T07:26:39.165Z,0.23
2023-12-26T07:31:44.021Z,0.40
2023-12-26T07:36:48.589Z,0.50
2023-12-26T07:41:52.909Z,0.30
2023-12-26T07:46:58.246Z,0.43
2023-12-26T07:52:01.843Z,0.20
2023-12-26T07:57:05.961Z,0.30
2023-12-26T08:02:11.407Z,0.30
2023-12-26T08:07:14.936Z,0.50
2023-12-26T08:12:18.401Z,0.40
2023-12-26T08:17:23.465Z,0.27
2023-12-26T08:22:26.918Z,0.23
2023-12-26T08:27:30.355Z,0.33
2023-12-26T08:32:35.335Z,0.27
2023-12-26T08:37:38.796Z,0.30
2023-12-26T08:42:42.434Z,0.30
2023-12-26T08:47:47.760Z,0.27
2023-12-26T08:52:51.398Z,0.33
2023-12-26T08:57:54.653Z,0.37
2023-12-26T09:03:06.395Z,0.40
2023-12-26T09:08:11.246Z,0.20
2023-12-26T09:13:16.655Z,0.30
2023-12-26T09:18:21.678Z,0.30
2023-12-26T09:23:25.046Z,0.50
2023-12-26T09:28:28.326Z,0.30
2023-12-26T09:33:33.291Z,0.30
2023-12-26T09:38:37.132Z,0.20
2023-12-26T09:43:41.626Z,0.20
2023-12-26T09:48:46.694Z,0.40
2023-12-26T09:53:57.567Z,0.30
2023-12-26T09:59:03.094Z,0.20
2023-12-26T10:04:08.915Z,0.20
2023-12-26T10:09:12.641Z,0.40
2023-12-26T10:14:29.080Z,0.20
2023-12-26T10:19:34.027Z,0.40
2023-12-26T10:24:37.417Z,0.40
2023-12-26T10:29:40.781Z,0.20
2023-12-26T10:34:45.898Z,0.20
2023-12-26T10:39:49.297Z,0.33
2023-12-26T10:44:55.415Z,0.30
2023-12-26T10:50:02.144Z,0.20
2023-12-26T10:55:08.014Z,0.50
2023-12-26T11:01:06.249Z,2.07
2023-12-26T11:07:34.298Z,0.40
2023-12-26T11:13:50.711Z,0.50
2023-12-26T11:20:06.958Z,0.30
2023-12-26T11:26:23.028Z,0.53
2023-12-26T11:32:39.731Z,0.50
2023-12-26T11:38:56.163Z,0.60
2023-12-26T11:45:13.057Z,0.60
2023-12-26T11:51:29.953Z,0.40
2023-12-26T11:57:46.703Z,0.30
2023-12-26T12:04:03.450Z,1.00
2023-12-26T12:10:20.289Z,0.63
2023-12-26T12:16:37.293Z,0.70
2023-12-26T12:22:54.348Z,0.60
2023-12-26T12:29:11.266Z,0.50
2023-12-26T12:35:28.531Z,0.30
2023-12-26T12:41:45.224Z,0.47
2023-12-26T12:48:01.876Z,0.57
2023-12-26T12:54:18.401Z,0.50
2023-12-26T13:00:35.121Z,0.50
2023-12-26T13:06:51.844Z,0.67
2023-12-26T13:13:08.824Z,0.50
2023-12-26T13:19:25.696Z,0.37
2023-12-26T13:25:42.473Z,0.40
2023-12-26T13:32:00.436Z,0.77
2023-12-26T13:38:17.483Z,0.97
2023-12-26T13:44:34.397Z,1.07
2023-12-26T13:50:51.748Z,0.80
2023-12-26T13:56:50.728Z,0.53
2023-12-26T14:02:31.097Z,0.80
2023-12-26T14:08:11.516Z,0.70
2023-12-26T14:13:51.678Z,0.97
2023-12-26T14:19:32.181Z,1.80
2023-12-26T14:25:13.010Z,2.03
2023-12-26T14:30:53.560Z,1.00
2023-12-26T14:36:34.496Z,0.90
2023-12-26T14:42:15.012Z,1.70
2023-12-26T14:47:55.324Z,1.57
2023-12-26T14:53:35.630Z,1.20
2023-12-26T14:59:17.466Z,1.30
2023-12-26T15:04:24.875Z,2.47
2023-12-26T15:09:31.041Z,0.50
2023-12-26T15:14:42.375Z,1.00
2023-12-26T15:19:49.425Z,1.03
2023-12-26T15:24:52.978Z,0.50
2023-12-26T15:29:56.327Z,0.73
2023-12-26T15:35:02.213Z,0.60
2023-12-26T15:40:07.094Z,0.70
2023-12-26T15:45:11.747Z,1.70
2023-12-26T15:50:16.659Z,1.30
2023-12-26T15:55:21.688Z,1.83
2023-12-26T16:00:25.286Z,1.10
2023-12-26T16:05:30.126Z,0.80
2023-12-26T16:10:33.634Z,1.23
2023-12-26T16:15:37.310Z,1.30
2023-12-26T16:20:43.026Z,0.90
2023-12-26T16:25:47.124Z,3.97
2023-12-26T16:30:51.940Z,1.13
2023-12-26T16:35:59.919Z,1.30
2023-12-26T16:41:07.946Z,1.07
2023-12-26T16:46:12.843Z,2.07
2023-12-26T16:51:17.669Z,2.37
2023-12-26T16:56:21.592Z,0.90
2023-12-26T17:01:25.141Z,0.73
2023-12-26T17:06:30.368Z,0.87
2023-12-26T17:11:34.118Z,0.50
2023-12-26T17:16:37.590Z,0.70
2023-12-26T17:21:42.528Z,0.93
2023-12-26T17:27:06.430Z,0.90
2023-12-26T17:32:29.737Z,0.70
2023-12-26T17:37:34.433Z,1.13
2023-12-26T17:42:38.915Z,0.90
2023-12-26T17:47:42.816Z,3.40
2023-12-26T17:52:49.461Z,19.13
2023-12-26T17:57:54.504Z,17.70
2023-12-26T18:02:58.108Z,2.50
2023-12-26T18:08:03.033Z,5.30
2023-12-26T18:13:06.569Z,1.27
2023-12-26T18:18:11.016Z,0.60
2023-12-26T18:23:16.562Z,2.17
2023-12-26T18:28:20.172Z,1.53
2023-12-26T18:33:24.145Z,1.60
2023-12-26T18:38:30.866Z,0.90
2023-12-26T18:43:34.217Z,1.07
2023-12-26T18:48:37.712Z,0.93
2023-12-26T18:53:42.517Z,1.00
2023-12-26T18:58:45.776Z,0.80
2023-12-26T19:03:49.699Z,0.60
2023-12-26T19:08:54.695Z,0.63
2023-12-26T19:13:58.144Z,1.10
2023-12-26T19:19:01.663Z,1.30
2023-12-26T19:24:07.743Z,0.70
2023-12-26T19:29:11.296Z,0.80
2023-12-26T19:34:14.711Z,0.77
2023-12-26T19:39:19.799Z,1.23
2023-12-26T19:44:23.362Z,2.07
2023-12-26T19:49:27.098Z,1.80
2023-12-26T19:54:32.408Z,2.00
2023-12-26T19:59:35.824Z,1.27
2023-12-26T20:04:40.177Z,1.47
2023-12-26T20:09:45.221Z,1.50
2023-12-26T20:14:48.652Z,1.40
2023-12-26T20:19:54.349Z,0.90
2023-12-26T20:25:00.380Z,1.10
2023-12-26T20:30:04.252Z,1.30
2023-12-26T20:35:09.384Z,1.20
2023-12-26T20:40:15.528Z,0.97
2023-12-26T20:45:19.711Z,0.93
2023-12-26T20:50:23.776Z,1.07
2023-12-26T20:55:29.858Z,1.10
2023-12-26T21:00:33.153Z,1.33
2023-12-26T21:05:36.676Z,1.27
2023-12-26T21:10:41.857Z,1.03
2023-12-26T21:15:45.341Z,1.10
2023-12-26T21:20:48.585Z,0.97
2023-12-26T21:25:53.259Z,1.40
2023-12-26T21:30:56.683Z,1.00
2023-12-26T21:36:00.065Z,0.73
2023-12-26T21:41:06.665Z,1.60
2023-12-26T21:46:10.756Z,1.93
2023-12-26T21:51:15.336Z,1.93
2023-12-26T21:56:20.122Z,2.00
2023-12-26T22:01:25.064Z,2.00
2023-12-26T22:06:28.732Z,1.70
2023-12-26T22:11:33.382Z,2.10
2023-12-26T22:16:36.595Z,1.80
2023-12-26T22:21:42.367Z,1.57
2023-12-26T22:26:47.002Z,1.70
2023-12-26T22:31:50.313Z,2.10
2023-12-26T22:36:53.628Z,1.07
2023-12-26T22:41:58.360Z,2.10
2023-12-26T22:47:01.627Z,2.13
2023-12-26T22:52:04.962Z,1.20
2023-12-26T22:57:09.872Z,1.80
2023-12-26T23:02:13.353Z,1.70
2023-12-26T23:07:17.930Z,1.07
2023-12-26T23:12:23.213Z,1.57
2023-12-26T23:17:28.148Z,1.27
2023-12-26T23:22:32.452Z,0.90
2023-12-26T23:27:37.100Z,1.40
2023-12-26T23:32:40.398Z,1.07
2023-12-26T23:37:43.642Z,1.10
2023-12-26T23:42:48.224Z,1.03
2023-12-26T23:47:51.565Z,1.20
2023-12-26T23:52:54.843Z,1.13
2023-12-26T23:57:59.669Z,1.00
